createdAt,value
2017-11-10T00:00:20.401Z,35.28
2017-11-10T00:02:47.963Z,37.53
2017-11-10T00:05:15.529Z,38.60
2017-11-10T00:07:43.101Z,35.30
2017-11-10T00:10:10.671Z,39.17
2017-11-10T00:12:39.025Z,38.38
2017-11-10T00:15:06.601Z,40.30
2017-11-10T00:17:35.015Z,36.55
2017-11-10T00:20:02.576Z,40.00
2017-11-10T00:22:30.149Z,37.88
2017-11-10T00:24:57.709Z,38.95
2017-11-10T00:27:25.252Z,37.10
2017-11-10T00:29:52.817Z,36.90
2017-11-10T00:32:20.359Z,37.17
2017-11-10T00:34:47.916Z,31.40
2017-11-10T00:37:15.487Z,32.22
2017-11-10T00:39:43.037Z,34.30
2017-11-10T00:42:10.604Z,33.65
2017-11-10T00:44:38.216Z,31.37
2017-11-10T00:47:06.554Z,31.35
2017-11-10T00:49:34.127Z,30.27
2017-11-10T00:52:01.665Z,28.15
2017-11-10T00:54:29.224Z,27.35
2017-11-10T00:56:56.779Z,24.30
2017-11-10T00:59:24.335Z,24.25
2017-11-10T01:01:51.921Z,24.23
2017-11-10T01:04:19.459Z,25.30
2017-11-10T01:06:47.054Z,23.62
2017-11-10T01:09:14.614Z,19.87
2017-11-10T01:11:42.177Z,21.15
2017-11-10T01:14:09.748Z,20.25
2017-11-10T01:16:37.303Z,22.00
2017-11-10T01:19:04.902Z,20.23
2017-11-10T01:21:32.473Z,19.50
2017-11-10T01:24:00.046Z,18.80
2017-11-10T01:26:27.623Z,18.17
2017-11-10T01:28:55.169Z,18.33
2017-11-10T01:31:22.747Z,16.80
2017-11-10T01:33:50.299Z,16.67
2017-11-10T01:36:17.852Z,16.80
2017-11-10T01:38:45.410Z,14.23
2017-11-10T01:41:12.964Z,15.55
2017-11-10T01:43:40.543Z,13.38
2017-11-10T01:46:08.095Z,13.23
2017-11-10T01:48:41.501Z,13.23
2017-11-10T01:51:09.041Z,13.68
2017-11-10T01:53:36.606Z,14.32
2017-11-10T01:56:04.183Z,14.30
2017-11-10T01:58:31.784Z,15.90
2017-11-10T02:00:59.368Z,13.23
2017-11-10T02:03:26.928Z,14.75
2017-11-10T02:05:54.496Z,14.82
2017-11-10T02:08:22.069Z,13.90
2017-11-10T02:10:49.637Z,14.80
2017-11-10T02:13:17.219Z,15.55
2017-11-10T02:15:44.783Z,14.10
2017-11-10T02:18:13.385Z,13.27
2017-11-10T02:20:40.946Z,12.75
2017-11-10T02:23:09.267Z,11.55
2017-11-10T02:25:36.834Z,13.40
2017-11-10T02:28:04.401Z,13.23
2017-11-10T02:30:31.965Z,12.70
2017-11-10T02:32:59.523Z,12.65
2017-11-10T02:35:28.579Z,12.25
2017-11-10T02:37:56.133Z,10.35
2017-11-10T02:40:23.687Z,10.45
2017-11-10T02:42:51.274Z,10.60
2017-11-10T02:45:18.813Z,12.18
2017-11-10T02:47:46.368Z,10.40
2017-11-10T02:50:13.920Z,11.10
2017-11-10T02:52:41.512Z,10.40
2017-11-10T02:55:09.079Z,11.40
2017-11-10T02:57:36.640Z,11.48
2017-11-10T03:00:04.226Z,9.90
2017-11-10T03:02:32.562Z,9.23
2017-11-10T03:05:00.138Z,10.35
2017-11-10T03:07:27.692Z,9.75
2017-11-10T03:09:55.293Z,8.65
2017-11-10T03:12:22.870Z,10.00
2017-11-10T03:14:50.459Z,8.68
2017-11-10T03:17:18.042Z,10.60
2017-11-10T03:19:45.607Z,8.73
2017-11-10T03:22:13.174Z,10.48
2017-11-10T03:24:42.228Z,8.85
2017-11-10T03:27:09.802Z,8.57
2017-11-10T03:29:37.391Z,9.35
2017-11-10T03:32:04.948Z,8.32
2017-11-10T03:34:32.508Z,9.02
2017-11-10T03:37:00.080Z,9.20
2017-11-10T03:39:28.413Z,9.13
2017-11-10T03:41:55.984Z,8.98
2017-11-10T03:44:23.554Z,8.65
2017-11-10T03:46:51.145Z,8.65
2017-11-10T03:49:19.474Z,9.95
2017-11-10T03:51:47.013Z,8.27
2017-11-10T03:54:14.573Z,8.77
2017-11-10T03:56:42.143Z,9.23
2017-11-10T03:59:09.676Z,8.63
2017-11-10T04:01:37.254Z,9.32
2017-11-10T04:04:04.825Z,9.70
2017-11-10T04:06:32.403Z,10.70
2017-11-10T04:08:59.941Z,11.90
2017-11-10T04:11:27.491Z,13.45
2017-11-10T04:13:55.080Z,13.20
2017-11-10T04:16:22.622Z,13.20
2017-11-10T04:18:50.186Z,12.93
2017-11-10T04:21:17.820Z,13.55
2017-11-10T04:23:45.392Z,11.80
2017-11-10T04:26:12.966Z,11.30
2017-11-10T04:28:40.540Z,12.63
2017-11-10T04:31:08.101Z,8.80
2017-11-10T04:33:35.686Z,11.12
2017-11-10T04:36:04.000Z,8.85
2017-11-10T04:38:31.590Z,8.32
2017-11-10T04:40:59.127Z,8.95
2017-11-10T04:43:26.708Z,9.18
2017-11-10T04:45:54.263Z,7.55
2017-11-10T04:48:21.798Z,6.80
2017-11-10T04:50:49.368Z,8.15
2017-11-10T04:53:16.933Z,6.80
2017-11-10T04:55:44.502Z,6.50
2017-11-10T04:58:12.055Z,6.70
2017-11-10T05:00:39.619Z,6.50
2017-11-10T05:03:07.170Z,7.22
2017-11-10T05:05:34.762Z,6.45
2017-11-10T05:08:03.075Z,6.85
2017-11-10T05:10:30.639Z,7.22
2017-11-10T05:12:58.215Z,7.35
2017-11-10T05:15:25.782Z,8.45
2017-11-10T05:17:53.373Z,9.10
2017-11-10T05:20:21.696Z,8.65
2017-11-10T05:22:49.242Z,7.68
2017-11-10T05:25:16.824Z,9.65
2017-11-10T05:27:44.382Z,8.75
2017-11-10T05:30:11.982Z,10.38
2017-11-10T05:32:39.540Z,11.00
2017-11-10T05:35:07.095Z,11.73
2017-11-10T05:37:34.649Z,12.15
2017-11-10T05:40:02.964Z,11.85
2017-11-10T05:42:30.533Z,11.55
2017-11-10T05:44:58.069Z,12.02
2017-11-10T05:47:26.373Z,14.05
2017-11-10T05:49:53.944Z,15.55
2017-11-10T05:52:21.499Z,13.70
2017-11-10T05:54:49.098Z,15.25
2017-11-10T05:57:16.641Z,14.13
2017-11-10T05:59:44.176Z,15.35
2017-11-10T06:02:11.748Z,15.10
2017-11-10T06:04:39.304Z,15.60
2017-11-10T06:07:06.888Z,16.40
2017-11-10T06:09:34.475Z,15.07
2017-11-10T06:12:02.781Z,14.93
2017-11-10T06:14:30.370Z,14.95
2017-11-10T06:16:57.914Z,15.73
2017-11-10T06:19:25.471Z,17.35
2017-11-10T06:21:53.023Z,17.05
2017-11-10T06:24:20.599Z,16.23
2017-11-10T06:26:48.165Z,17.33
2017-11-10T06:29:15.728Z,17.05
2017-11-10T06:31:43.322Z,19.65
2017-11-10T06:34:11.648Z,19.12
2017-11-10T06:36:39.225Z,21.10
2017-11-10T06:39:06.775Z,16.90
2017-11-10T06:41:34.332Z,19.55
2017-11-10T06:44:01.917Z,19.43
2017-11-10T06:46:30.239Z,21.93
2017-11-10T06:48:57.813Z,19.67
2017-11-10T06:51:25.373Z,21.83
2017-11-10T06:53:52.949Z,20.50
2017-11-10T06:56:20.513Z,20.10
2017-11-10T06:58:48.175Z,19.03
2017-11-10T07:01:15.774Z,21.12
2017-11-10T07:03:44.095Z,20.27
2017-11-10T07:06:11.675Z,19.90
2017-11-10T07:08:39.257Z,21.87
2017-11-10T07:11:06.807Z,19.27
2017-11-10T07:13:34.384Z,20.25
2017-11-10T07:16:01.940Z,20.75
2017-11-10T07:18:30.241Z,21.20
2017-11-10T07:20:58.598Z,21.55
2017-11-10T07:23:26.156Z,21.52
2017-11-10T07:25:53.744Z,21.35
2017-11-10T07:28:21.304Z,21.00
2017-11-10T07:30:48.849Z,22.00
2017-11-10T07:33:17.206Z,21.55
2017-11-10T07:35:44.798Z,19.50
2017-11-10T07:38:12.393Z,19.80
2017-11-10T07:40:39.950Z,22.10
2017-11-10T07:43:07.504Z,17.15
2017-11-10T07:45:35.082Z,20.02
2017-11-10T07:48:02.644Z,20.87
2017-11-10T07:50:30.295Z,18.85
2017-11-10T07:52:57.852Z,20.77
2017-11-10T07:55:25.450Z,19.50
2017-11-10T07:57:52.994Z,19.60
2017-11-10T08:00:20.554Z,19.77
2017-11-10T08:02:48.118Z,17.63
2017-11-10T08:05:15.704Z,19.12
2017-11-10T08:07:43.720Z,19.10
2017-11-10T08:10:11.368Z,20.25
2017-11-10T08:12:38.966Z,20.55
2017-11-10T08:15:06.516Z,21.97
2017-11-10T08:17:34.099Z,21.40
2017-11-10T08:20:02.426Z,20.50
2017-11-10T08:22:29.994Z,21.93
2017-11-10T08:24:57.561Z,24.00
2017-11-10T08:27:25.124Z,22.30
2017-11-10T08:29:52.695Z,23.87
2017-11-10T08:32:20.244Z,23.00
2017-11-10T08:34:47.795Z,19.90
2017-11-10T08:37:15.367Z,21.67
2017-11-10T08:39:42.915Z,22.17
2017-11-10T08:42:10.514Z,19.10
2017-11-10T08:44:38.954Z,21.25
2017-11-10T08:47:06.484Z,20.30
2017-11-10T08:49:34.054Z,16.60
2017-11-10T08:52:01.627Z,16.90
2017-11-10T08:54:29.197Z,17.80
2017-11-10T08:56:56.737Z,15.60
2017-11-10T08:59:24.309Z,13.47
2017-11-10T09:01:51.899Z,12.88
2017-11-10T09:04:19.456Z,10.00
2017-11-10T09:06:47.021Z,14.00
2017-11-10T09:09:14.596Z,10.70
2017-11-10T09:11:42.925Z,13.10
2017-11-10T09:14:10.497Z,16.30
2017-11-10T09:16:38.056Z,11.18
2017-11-10T09:19:05.637Z,10.10
2017-11-10T09:21:34.011Z,10.10
2017-11-10T09:24:01.600Z,8.45
2017-11-10T09:26:29.233Z,8.30
2017-11-10T09:29:10.445Z,18.85
2017-11-10T09:31:50.457Z,8.93
2017-11-10T09:34:23.644Z,16.00
2017-11-10T09:36:54.908Z,8.53
2017-11-10T09:42:34.211Z,8.55
2017-11-10T09:45:07.532Z,10.70
2017-11-10T09:47:40.805Z,12.05
2017-11-10T09:53:20.043Z,8.00
2017-11-10T09:55:48.087Z,10.38
2017-11-10T09:58:17.337Z,10.85
2017-11-10T10:00:50.698Z,11.45
2017-11-10T10:06:30.592Z,8.97
2017-11-10T10:09:04.000Z,9.13
2017-11-10T10:14:39.862Z,11.70
2017-11-10T10:17:22.293Z,8.33
2017-11-10T10:19:54.530Z,7.90
2017-11-10T10:22:24.894Z,6.82
2017-11-10T10:24:52.482Z,8.37
2017-11-10T10:27:20.042Z,8.80
2017-11-10T10:29:48.379Z,8.50
2017-11-10T10:32:15.910Z,8.33
2017-11-10T10:34:43.449Z,6.90
2017-11-10T10:37:11.014Z,7.67
2017-11-10T10:39:38.572Z,6.20
2017-11-10T10:42:06.130Z,7.03
2017-11-10T10:44:33.670Z,5.70
2017-11-10T10:47:01.973Z,6.83
2017-11-10T10:49:29.550Z,5.40
2017-11-10T10:51:57.084Z,5.30
2017-11-10T10:54:24.663Z,4.57
2017-11-10T10:56:52.198Z,6.20
2017-11-10T10:59:19.859Z,6.18
2017-11-10T11:01:47.438Z,6.10
2017-11-10T11:04:14.992Z,6.70
2017-11-10T11:06:42.586Z,7.22
2017-11-10T11:09:10.138Z,8.20
2017-11-10T11:11:37.699Z,8.23
2017-11-10T11:14:05.290Z,8.80
2017-11-10T11:16:33.594Z,9.53
2017-11-10T11:19:01.182Z,11.03
2017-11-10T11:21:28.740Z,11.73
2017-11-10T11:23:56.324Z,11.02
2017-11-10T11:26:23.880Z,10.90
2017-11-10T11:28:51.413Z,10.10
2017-11-10T11:31:18.984Z,11.17
2017-11-10T11:33:46.537Z,10.17
2017-11-10T11:36:14.119Z,11.52
2017-11-10T11:38:41.686Z,11.20
2017-11-10T11:41:09.232Z,9.90
2017-11-10T11:43:36.814Z,10.03
2017-11-10T11:46:04.363Z,9.70
2017-11-10T11:48:31.974Z,15.00
2017-11-10T11:50:59.546Z,10.00
2017-11-10T11:53:27.117Z,10.57
2017-11-10T11:55:54.912Z,9.77
2017-11-10T11:58:22.449Z,9.20
2017-11-10T12:00:50.028Z,11.30
2017-11-10T12:03:17.583Z,11.60
2017-11-10T12:05:45.121Z,11.27
2017-11-10T12:08:12.693Z,12.70
2017-11-10T12:10:40.266Z,11.80
2017-11-10T12:13:07.943Z,10.30
2017-11-10T12:15:35.495Z,10.70
2017-11-10T12:18:03.062Z,10.63
2017-11-10T12:20:30.621Z,12.70
2017-11-10T12:22:58.201Z,12.03
2017-11-10T12:25:26.547Z,12.20
2017-11-10T12:27:54.099Z,14.40
2017-11-10T12:30:21.688Z,15.83
2017-11-10T12:32:50.038Z,15.37
2017-11-10T12:35:17.672Z,16.23
2017-11-10T12:37:45.259Z,15.73
2017-11-10T12:40:12.812Z,13.87
2017-11-10T12:42:40.366Z,13.82
2017-11-10T12:45:07.940Z,16.30
2017-11-10T12:47:35.515Z,14.90
2017-11-10T12:50:03.871Z,12.40
2017-11-10T12:52:32.210Z,12.40
2017-11-10T12:54:59.749Z,12.73
2017-11-10T12:57:28.073Z,10.67
2017-11-10T12:59:55.623Z,10.33
2017-11-10T13:02:23.181Z,8.60
2017-11-10T13:04:50.744Z,9.57
2017-11-10T13:07:18.298Z,7.50
2017-11-10T13:09:45.886Z,72.43
2017-11-10T13:12:14.012Z,12.63
2017-11-10T13:14:41.573Z,12.57
2017-11-10T13:17:09.816Z,12.18
2017-11-10T13:19:38.142Z,13.30
2017-11-10T13:22:06.532Z,15.67
2017-11-10T13:24:35.259Z,14.40
2017-11-10T13:27:04.682Z,26.00
2017-11-10T13:29:32.575Z,17.27
2017-11-10T13:32:00.954Z,13.93
2017-11-10T13:34:29.058Z,20.92
2017-11-10T13:36:57.197Z,22.73
2017-11-10T13:39:24.840Z,17.13
2017-11-10T13:41:52.413Z,16.60
2017-11-10T13:44:20.593Z,16.65
2017-11-10T13:46:48.206Z,18.27
2017-11-10T13:49:16.560Z,20.17
2017-11-10T13:51:44.202Z,17.33
2017-11-10T13:54:11.785Z,14.93
2017-11-10T13:56:39.421Z,15.80
2017-11-10T13:59:06.993Z,16.80
2017-11-10T14:01:34.617Z,14.40
2017-11-10T14:04:02.211Z,14.77
2017-11-10T14:06:29.809Z,17.30
2017-11-10T14:08:57.427Z,15.47
2017-11-10T14:11:24.987Z,14.77
2017-11-10T14:13:52.572Z,12.70
2017-11-10T14:16:20.900Z,13.50
2017-11-10T14:18:48.461Z,12.77
2017-11-10T14:21:16.027Z,13.30
2017-11-10T14:23:43.561Z,15.07
2017-11-10T14:26:11.154Z,16.47
2017-11-10T14:28:38.690Z,12.97
2017-11-10T14:31:06.236Z,12.53
2017-11-10T14:33:33.804Z,18.60
2017-11-10T14:36:01.374Z,20.23
2017-11-10T14:38:28.959Z,17.70
2017-11-10T14:40:56.602Z,20.13
2017-11-10T14:43:24.178Z,22.40
2017-11-10T14:45:51.733Z,25.23
2017-11-10T14:48:19.306Z,27.63
2017-11-10T14:50:46.902Z,25.53
2017-11-10T14:53:15.228Z,24.50
2017-11-10T14:55:42.883Z,27.95
2017-11-10T14:58:10.453Z,27.35
2017-11-10T15:00:38.021Z,28.33
2017-11-10T15:03:05.596Z,31.13
2017-11-10T15:05:33.151Z,21.10
2017-11-10T15:08:01.505Z,23.12
2017-11-10T15:10:29.847Z,9.40
2017-11-10T15:12:57.385Z,6.65
2017-11-10T15:15:25.715Z,9.70
2017-11-10T15:17:53.273Z,8.25
2017-11-10T15:20:20.854Z,8.43
2017-11-10T15:22:49.901Z,9.68
2017-11-10T15:25:17.472Z,7.47
2017-11-10T15:27:45.025Z,6.05
2017-11-10T15:30:12.603Z,6.53
2017-11-10T15:32:40.167Z,5.30
2017-11-10T15:35:07.822Z,4.00
2017-11-10T15:37:35.420Z,4.37
2017-11-10T15:40:03.759Z,4.33
2017-11-10T15:42:31.338Z,3.97
2017-11-10T15:44:58.889Z,3.33
2017-11-10T15:47:26.456Z,3.95
2017-11-10T15:49:54.027Z,4.55
2017-11-10T15:52:21.584Z,4.35
2017-11-10T15:54:49.159Z,4.97
2017-11-10T15:57:16.707Z,5.40
2017-11-10T15:59:44.245Z,7.80
2017-11-10T16:02:11.821Z,4.80
2017-11-10T16:04:39.380Z,4.10
2017-11-10T16:07:06.969Z,4.20
2017-11-10T16:09:35.310Z,4.25
2017-11-10T16:12:02.948Z,3.57
2017-11-10T16:14:30.516Z,3.90
2017-11-10T16:16:58.103Z,2.60
2017-11-10T16:19:25.672Z,2.65
2017-11-10T16:21:53.992Z,2.70
2017-11-10T16:24:21.590Z,2.47
2017-11-10T16:26:49.137Z,3.22
2017-11-10T16:29:16.706Z,5.87
2017-11-10T16:31:44.275Z,6.03
2017-11-10T16:34:11.831Z,8.30
2017-11-10T16:36:39.411Z,4.60
2017-11-10T16:39:07.845Z,2.42
2017-11-10T16:41:35.394Z,3.78
2017-11-10T16:44:02.980Z,3.20
2017-11-10T16:46:30.544Z,3.65
2017-11-10T16:48:58.271Z,2.78
2017-11-10T16:51:25.816Z,2.45
2017-11-10T16:53:53.368Z,3.03
2017-11-10T16:56:20.940Z,2.62
2017-11-10T16:58:48.508Z,2.55
2017-11-10T17:01:16.073Z,2.90
2017-11-10T17:03:43.642Z,2.90
2017-11-10T17:06:11.205Z,3.70
2017-11-10T17:08:38.771Z,3.47
2017-11-10T17:11:06.336Z,2.78
2017-11-10T17:13:34.709Z,3.78
2017-11-10T17:16:02.269Z,2.30
2017-11-10T17:18:29.821Z,2.78
2017-11-10T17:20:57.373Z,2.95
2017-11-10T17:23:24.926Z,1.95
2017-11-10T17:25:52.511Z,2.62
2017-11-10T17:28:20.046Z,2.70
2017-11-10T17:30:47.606Z,2.60
2017-11-10T17:33:15.189Z,4.28
2017-11-10T17:35:42.827Z,2.72
2017-11-10T17:38:10.403Z,2.92
2017-11-10T17:40:37.978Z,6.55
2017-11-10T17:43:07.247Z,2.55
2017-11-10T17:45:34.820Z,3.03
2017-11-10T17:48:02.381Z,2.25
2017-11-10T17:50:29.949Z,3.10
2017-11-10T17:52:57.583Z,2.67
2017-11-10T17:55:25.113Z,2.83
2017-11-10T17:57:52.675Z,2.30
2017-11-10T18:00:20.244Z,2.15
2017-11-10T18:02:47.932Z,2.22
2017-11-10T18:05:15.594Z,2.78
2017-11-10T18:07:43.145Z,2.15
2017-11-10T18:10:10.732Z,2.37
2017-11-10T18:12:38.289Z,3.25
2017-11-10T18:15:05.844Z,2.85
2017-11-10T18:17:33.420Z,2.30
2017-11-10T18:20:01.305Z,2.95
2017-11-10T18:22:29.629Z,2.05
2017-11-10T18:24:57.189Z,2.60
2017-11-10T18:27:24.731Z,2.97
2017-11-10T18:29:52.290Z,3.37
2017-11-10T18:32:19.878Z,4.25
2017-11-10T18:34:47.436Z,4.93
2017-11-10T18:37:14.977Z,4.90
2017-11-10T18:39:42.539Z,5.90
2017-11-10T18:42:10.098Z,6.80
2017-11-10T18:44:37.676Z,5.82
2017-11-10T18:47:05.224Z,7.03
2017-11-10T18:49:32.894Z,4.35
2017-11-10T18:52:00.470Z,4.78
2017-11-10T18:54:28.019Z,6.20
2017-11-10T18:56:55.591Z,5.00
2017-11-10T18:59:23.226Z,5.60
2017-11-10T19:01:50.866Z,4.57
2017-11-10T19:04:18.458Z,5.97
2017-11-10T19:06:45.993Z,4.80
2017-11-10T19:09:13.576Z,5.62
2017-11-10T19:11:41.166Z,5.35
2017-11-10T19:14:09.507Z,6.07
2017-11-10T19:16:37.088Z,4.32
2017-11-10T19:19:04.644Z,4.70
2017-11-10T19:21:32.179Z,3.30
2017-11-10T19:23:59.763Z,3.72
2017-11-10T19:26:27.349Z,5.15
2017-11-10T19:28:55.664Z,4.60
2017-11-10T19:31:23.211Z,5.62
2017-11-10T19:33:50.771Z,5.65
2017-11-10T19:36:18.332Z,4.60
2017-11-10T19:38:45.924Z,4.47
2017-11-10T19:41:13.479Z,5.28
2017-11-10T19:43:41.036Z,4.93
2017-11-10T19:46:08.599Z,5.40
2017-11-10T19:48:36.186Z,6.15
2017-11-10T19:51:03.747Z,6.12
2017-11-10T19:53:31.306Z,7.78
2017-11-10T19:55:58.898Z,5.30
2017-11-10T19:58:26.467Z,5.62
2017-11-10T20:00:54.042Z,6.32
2017-11-10T20:03:21.606Z,5.05
2017-11-10T20:05:49.176Z,5.75
2017-11-10T20:08:16.746Z,5.07
2017-11-10T20:10:44.337Z,6.25
2017-11-10T20:13:12.647Z,7.37
2017-11-10T20:15:40.227Z,6.28
2017-11-10T20:18:07.813Z,6.18
2017-11-10T20:20:35.382Z,5.93
2017-11-10T20:23:02.922Z,5.85
2017-11-10T20:25:30.481Z,5.10
2017-11-10T20:27:58.021Z,7.18
2017-11-10T20:30:25.607Z,6.15
2017-11-10T20:32:53.180Z,4.10
2017-11-10T20:35:21.478Z,5.87
2017-11-10T20:37:49.833Z,5.62
2017-11-10T20:40:17.472Z,4.87
2017-11-10T20:42:45.028Z,4.40
2017-11-10T20:45:12.606Z,4.90
2017-11-10T20:47:40.200Z,5.57
2017-11-10T20:50:07.798Z,4.85
2017-11-10T20:52:35.365Z,4.20
2017-11-10T20:55:02.930Z,5.22
2017-11-10T20:57:30.499Z,4.18
2017-11-10T20:59:58.053Z,6.60
2017-11-10T21:02:25.670Z,5.47
2017-11-10T21:04:53.351Z,4.15
2017-11-10T21:07:20.908Z,5.20
2017-11-10T21:09:48.485Z,4.87
2017-11-10T21:12:16.046Z,3.85
2017-11-10T21:14:43.687Z,4.40
2017-11-10T21:17:11.253Z,5.53
2017-11-10T21:19:38.832Z,4.10
2017-11-10T21:22:06.399Z,4.50
2017-11-10T21:24:33.949Z,5.25
2017-11-10T21:27:01.502Z,6.50
2017-11-10T21:29:29.096Z,4.00
2017-11-10T21:31:57.426Z,4.65
2017-11-10T21:34:24.976Z,4.60
2017-11-10T21:36:52.558Z,4.28
2017-11-10T21:39:20.123Z,5.18
2017-11-10T21:41:47.664Z,4.12
2017-11-10T21:44:15.227Z,5.40
2017-11-10T21:46:42.777Z,5.82
2017-11-10T21:49:10.328Z,4.60
2017-11-10T21:51:37.923Z,6.50
2017-11-10T21:54:05.472Z,5.07
2017-11-10T21:56:33.019Z,5.43
2017-11-10T21:59:00.577Z,4.72
2017-11-10T22:01:28.141Z,6.03
2017-11-10T22:03:55.688Z,4.25
2017-11-10T22:06:23.256Z,4.40
2017-11-10T22:08:50.798Z,4.50
2017-11-10T22:11:18.394Z,4.75
2017-11-10T22:13:47.456Z,4.93
2017-11-10T22:16:14.986Z,5.03
2017-11-10T22:18:43.324Z,4.12
2017-11-10T22:21:10.853Z,4.72
2017-11-10T22:23:38.412Z,4.20
2017-11-10T22:26:06.015Z,4.05
2017-11-10T22:28:33.591Z,4.15
2017-11-10T22:31:01.908Z,4.30
2017-11-10T22:33:29.487Z,4.30
2017-11-10T22:35:57.021Z,5.00
2017-11-10T22:38:24.592Z,5.70
2017-11-10T22:40:52.149Z,4.70
2017-11-10T22:43:19.713Z,4.43
2017-11-10T22:45:47.292Z,4.40
2017-11-10T22:48:14.835Z,5.62
2017-11-10T22:50:42.402Z,5.93
2017-11-10T22:53:09.958Z,4.43
2017-11-10T22:55:37.518Z,5.45
2017-11-10T22:58:05.085Z,6.65
2017-11-10T23:00:32.631Z,4.62
2017-11-10T23:03:00.189Z,5.37
2017-11-10T23:05:27.751Z,6.25
2017-11-10T23:07:55.285Z,4.57
2017-11-10T23:10:22.863Z,5.20
2017-11-10T23:12:50.394Z,5.28
2017-11-10T23:15:17.936Z,5.03
2017-11-10T23:17:46.289Z,5.25
2017-11-10T23:20:13.840Z,6.00
2017-11-10T23:22:41.411Z,5.30
2017-11-10T23:25:08.959Z,5.53
2017-11-10T23:27:36.526Z,5.20
2017-11-10T23:30:04.068Z,5.60
2017-11-10T23:32:31.602Z,5.75
2017-11-10T23:34:59.163Z,5.15
2017-11-10T23:37:26.715Z,6.20
2017-11-10T23:39:54.274Z,5.20
2017-11-10T23:42:21.824Z,5.97
2017-11-10T23:44:49.378Z,5.40
2017-11-10T23:47:16.923Z,5.20
2017-11-10T23:49:45.274Z,5.80
2017-11-10T23:52:12.840Z,5.40
2017-11-10T23:54:40.388Z,5.57
2017-11-10T23:57:07.955Z,4.40
2017-11-10T23:59:36.280Z,5.78
